Holcut, Mississippi
Current Conditions -  °F | °C
As of 2:35 AM on Friday 31 Oct 2014 (Local Time) from KCRX Reporting Station
Overcast Overcast  
Wind Chill: 52°   Ceiling: 5500
Heat Index: 52°   Visibility: 10mi
Dew Point: 48°   Wind: 5mph
Humidity: 88%   Direction: 70°ENE
Pressure: 30"   Gusts: NA
Location:  34.8106°N, 88.1999°W
Report Text: KCRX 310735Z AUTO 07004KT 10SM FEW004 BKN055 OVC070 11/09 A3000 RMK AO2
Loading
Personal Weather Stations






























Interactive Weather Map
Tropical Storm Tracking
New forecast layout! Learn more

10-Day Weather Forecast

Advertisements
Track Severe Weather on mobile